Latest Weather Observations for Noonamah

IDD60801

Issued at 7:51 pm CST Sunday 16 December 2018 (issued every 10 minutes, with the page automatically refreshed every 10 minutes)

About weather observations | Map of weather stations | Latest weather observations for NT | Other Formats
Station Details ID: 014314 Name: NOONAMAH AIRSTRIP Lat: -12.61 Lon: 131.05 Height: 17.5 m
Data from the previous 72 hours. | See also: Recent months at Noonamah
Date/Time
CST
Temp
°C
App
Temp
°C
Dew
Point
°C
Rel
Hum
%
Delta-T
°C
Wind Press
QNH
hPa
Press
MSL
hPa
Rain since
9am
mm
Dir  Spd
km/h
Gust
km/h
Spd
kts
Gust
kts
16/07:30pm 30.4 34.4 23.8 68 4.6 W 9 17 5 9 1005.3 1005.1 -
16/07:00pm 30.8 34.0 23.7 66 4.9 WNW 13 24 7 13 1005.0 1004.8 -
16/06:30pm 31.5 35.2 23.9 64 5.3 WNW 11 17 6 9 1005.1 1004.9 -
16/06:00pm 32.0 34.7 23.5 60 5.9 WNW 15 24 8 13 1004.7 1004.5 -
16/05:30pm 32.8 35.0 23.2 57 6.7 WNW 17 26 9 14 1004.5 1004.3 0.0
16/05:00pm 33.3 35.5 23.3 55 6.9 WNW 17 26 9 14 1004.6 1004.4 0.0
16/04:30pm 33.9 35.9 23.6 55 7.2 WNW 19 28 10 15 1004.6 1004.4 0.0
16/04:00pm 34.8 37.3 23.2 51 8.1 W 15 24 8 13 1004.5 1004.3 0.0
16/03:30pm 34.9 37.5 22.6 49 8.5 W 13 20 7 11 1004.6 1004.4 0.0
16/03:00pm 34.3 36.4 22.4 50 8.2 W 15 22 8 12 1004.9 1004.7 0.0
16/02:30pm 35.0 38.2 23.7 52 7.9 W 13 24 7 13 1005.3 1005.1 0.0
16/02:00pm 34.6 37.4 23.6 52 7.7 WNW 15 24 8 13 1005.5 1005.3 0.0
16/01:30pm 34.7 38.3 24.3 54 7.3 WNW 13 20 7 11 1005.6 1005.4 0.0
16/01:00pm 34.1 37.7 23.8 55 7.2 W 11 20 6 11 1005.9 1005.7 0.0
16/12:30pm 34.1 38.1 24.4 57 6.8 W 11 22 6 12 1006.3 1006.1 0.0
16/12:00pm 34.0 37.6 24.3 57 6.8 W 13 24 7 13 1006.7 1006.5 0.0
16/11:30am 33.7 37.3 24.3 58 6.6 W 13 19 7 10 1007.1 1006.9 0.0
16/11:00am 33.2 36.3 23.5 56 6.7 WSW 13 20 7 11 1007.1 1006.9 0.0
16/10:30am 32.9 36.7 24.1 60 6.2 W 11 17 6 9 1007.2 1007.0 0.0
16/10:00am 32.3 36.5 24.1 62 5.7 W 9 17 5 9 1007.1 1006.9 0.0
16/09:30am 31.6 35.0 24.0 64 5.3 WNW 13 17 7 9 1007.2 1007.0 0.0
16/09:00am 31.6 36.7 25.0 68 4.7 WSW 7 15 4 8 1007.5 1007.3 0.0
16/08:30am 30.4 35.7 25.0 73 3.8 SW 6 9 3 5 1007.9 1007.7 0.0
16/08:00am 29.4 35.4 24.9 77 3.2 SSW 2 6 1 3 1008.1 1007.9 0.0
16/07:30am 28.6 34.4 25.2 82 2.4 SSW 4 7 2 4 1008.1 1007.9 0.0
16/07:00am 27.7 34.2 25.7 89 1.4 SSW 2 4 1 2 1007.5 1007.3 0.0
16/06:30am 26.7 32.8 25.1 91 1.1 SSW 2 4 1 2 1006.8 1006.6 0.0
16/06:00am 26.4 32.9 25.0 92 1.0 CALM 0 0 0 0 1006.2 1006.0 0.0
16/05:30am 26.5 32.9 24.9 91 1.1 CALM 0 0 0 0 1005.8 1005.6 0.0
16/05:00am 26.9 33.4 25.1 90 1.3 CALM 0 0 0 0 1005.6 1005.4 0.0
16/04:30am 26.7 32.6 24.7 89 1.4 SSW 2 4 1 2 1005.0 1004.8 0.0
16/04:00am 27.1 33.5 24.9 88 1.5 CALM 0 2 0 1 1004.8 1004.6 0.0
16/03:30am 27.1 33.5 24.9 88 1.5 CALM 0 4 0 2 1004.8 1004.6 0.0
16/03:00am 27.2 33.2 24.8 87 1.7 WSW 2 6 1 3 1004.6 1004.4 0.0
16/02:30am 27.7 34.0 24.7 84 2.1 CALM 0 4 0 2 1004.8 1004.6 0.0
16/02:00am 27.9 33.0 24.7 83 2.2 SW 6 9 3 5 1005.3 1005.1 0.0
16/01:30am 28.2 34.2 24.8 82 2.4 SW 2 6 1 3 1005.3 1005.1 0.0
16/01:00am 28.2 33.7 24.6 81 2.5 WSW 4 6 2 3 1005.8 1005.6 0.0
16/12:30am 28.4 33.5 24.6 80 2.7 WSW 6 9 3 5 1005.9 1005.7 0.0
16/12:00am 28.6 34.2 24.8 80 2.7 WSW 4 7 2 4 1006.5 1006.3 0.0
 
Date/Time
CST
Temp
°C
App
Temp
°C
Dew
Point
°C
Rel
Hum
%
Delta-T
°C
Wind Press
QNH
hPa
Press
MSL
hPa
Rain since
9am
mm
Dir  Spd
km/h
Gust
km/h
Spd
kts
Gust
kts
15/11:30pm 28.8 34.0 24.8 79 2.8 WSW 6 9 3 5 1006.5 1006.3 0.0
15/11:00pm 29.0 34.3 25.0 79 2.8 WSW 6 9 3 5 1006.2 1006.0 0.0
15/10:30pm 29.3 34.3 24.8 77 3.2 WSW 7 11 4 6 1006.0 1005.8 0.0
15/10:00pm 29.6 35.0 25.1 77 3.2 WSW 6 9 3 5 1005.8 1005.6 0.0
15/09:30pm 29.6 34.9 24.9 76 3.3 WSW 6 9 3 5 1005.5 1005.3 0.0
15/09:00pm 29.8 34.7 24.7 74 3.6 W 7 13 4 7 1005.3 1005.1 0.0
15/08:30pm 30.0 35.3 24.9 74 3.6 WSW 6 9 3 5 1005.2 1005.0 0.0
15/08:00pm 30.2 35.0 24.4 71 4.0 W 7 15 4 8 1004.8 1004.6 0.0
15/07:30pm 30.5 34.9 24.4 70 4.3 WSW 9 19 5 10 1004.3 1004.1 0.0
15/07:00pm 31.0 34.4 24.6 68 4.5 W 15 24 8 13 1003.5 1003.3 0.0
15/06:30pm 31.9 35.9 25.0 67 4.9 W 13 22 7 12 1003.3 1003.1 0.0
15/06:00pm 32.4 35.3 24.4 62 5.6 W 17 28 9 15 1003.4 1003.2 0.0
15/05:30pm 33.1 35.9 24.3 60 6.2 WNW 17 28 9 15 1003.4 1003.2 0.0
15/05:00pm 33.6 36.7 24.2 58 6.6 WNW 15 26 8 14 1003.1 1002.9 0.0
15/04:30pm 34.2 37.5 24.5 57 6.9 W 15 24 8 13 1003.0 1002.8 0.0
15/04:00pm 33.5 36.4 24.4 59 6.4 WNW 17 24 9 13 1003.1 1002.9 0.0
15/03:30pm 34.6 37.1 24.5 55 7.1 WNW 19 30 10 16 1003.1 1002.9 0.0
15/03:00pm 34.9 37.5 23.9 53 7.7 WNW 17 26 9 14 1003.3 1003.1 0.0
15/02:30pm 34.9 37.8 23.9 53 7.7 WNW 15 24 8 13 1003.7 1003.5 0.0
15/02:00pm 35.0 38.4 24.0 53 7.7 W 13 26 7 14 1004.2 1004.0 0.0
15/01:30pm 34.8 38.4 24.4 54 7.3 W 13 22 7 12 1004.5 1004.3 0.0
15/01:00pm 34.5 38.3 25.3 58 6.5 WNW 15 24 8 13 1004.9 1004.7 0.0
15/12:30pm 33.2 37.0 24.7 61 6.0 W 13 22 7 12 1005.4 1005.2 0.0
15/12:00pm 34.1 37.8 25.2 59 6.3 W 15 24 8 13 1005.6 1005.4 0.0
15/11:30am 33.4 37.3 24.8 60 6.1 W 13 22 7 12 1006.2 1006.0 0.0
15/11:00am 32.7 35.9 25.0 64 5.4 W 17 24 9 13 1006.4 1006.2 0.0
15/10:30am 33.3 38.6 25.3 63 5.7 W 7 15 4 8 1006.7 1006.5 0.0
15/10:00am 32.2 35.7 24.8 65 5.2 W 15 28 8 15 1006.8 1006.6 0.0
15/09:30am 31.5 35.5 25.1 69 4.5 W 13 19 7 10 1006.9 1006.7 0.0
15/09:00am 30.9 36.0 25.5 73 3.8 W 9 17 5 9 1006.9 1006.7 0.0
15/08:30am 31.0 36.6 25.8 74 3.7 WSW 7 11 4 6 1006.6 1006.4 0.0
15/08:00am 29.7 35.3 25.7 79 2.8 W 7 11 4 6 1006.2 1006.0 0.0
15/07:30am 28.8 35.0 25.8 84 2.1 WSW 4 7 2 4 1006.0 1005.8 0.0
15/07:00am 27.9 34.0 25.7 88 1.6 SW 4 6 2 3 1005.8 1005.6 0.0
15/06:30am 27.1 33.4 25.3 90 1.3 WSW 2 4 1 2 1005.4 1005.2 0.0
15/06:00am 27.4 33.7 25.4 89 1.4 SW 2 4 1 2 1004.6 1004.4 0.0
15/05:30am 27.6 33.9 25.4 88 1.5 SW 2 4 1 2 1004.4 1004.2 0.0
15/05:00am 27.8 33.6 25.2 86 1.8 SW 4 6 2 3 1004.0 1003.8 0.0
15/04:30am 28.0 33.4 25.2 85 2.0 WSW 6 7 3 4 1004.0 1003.8 0.0
15/04:00am 28.1 33.6 25.3 85 2.0 WSW 6 11 3 6 1004.0 1003.8 0.0
15/03:30am 28.2 33.6 25.2 84 2.1 WSW 6 9 3 5 1004.2 1004.0 0.0
15/03:00am 28.4 34.0 25.4 84 2.1 WSW 6 9 3 5 1004.4 1004.2 0.0
15/02:30am 28.4 34.0 25.4 84 2.1 WSW 6 7 3 4 1004.5 1004.3 0.0
15/02:00am 28.2 34.0 25.2 84 2.1 WSW 4 7 2 4 1004.7 1004.5 0.0
15/01:30am 28.2 34.0 25.2 84 2.1 SW 4 6 2 3 1004.8 1004.6 0.0
15/01:00am 28.3 33.7 25.1 83 2.2 WSW 6 7 3 4 1005.1 1004.9 0.0
15/12:30am 28.3 33.7 25.1 83 2.2 WSW 6 9 3 5 1005.1 1004.9 0.0
15/12:00am 28.4 33.7 25.0 82 2.4 WSW 6 9 3 5 1005.5 1005.3 0.0
 
Date/Time
CST
Temp
°C
App
Temp
°C
Dew
Point
°C
Rel
Hum
%
Delta-T
°C
Wind Press
QNH
hPa
Press
MSL
hPa
Rain since
9am
mm
Dir  Spd
km/h
Gust
km/h
Spd
kts
Gust
kts
14/11:30pm 28.5 33.6 24.7 80 2.7 WSW 6 9 3 5 1005.6 1005.4 0.0
14/11:00pm 28.8 33.7 24.6 78 2.9 WSW 7 11 4 6 1005.8 1005.6 0.0
14/10:30pm 29.1 34.0 24.7 77 3.1 WSW 7 11 4 6 1005.9 1005.7 0.0
14/10:00pm 29.2 34.5 25.0 78 2.9 WSW 6 9 3 5 1005.7 1005.5 0.0
14/09:30pm 29.3 34.1 25.1 78 3.0 WSW 9 15 5 8 1005.5 1005.3 0.0
14/09:00pm 29.5 34.2 25.0 77 3.2 WSW 9 17 5 9 1005.0 1004.8 0.0
14/08:30pm 29.7 35.0 25.0 76 3.3 WSW 6 9 3 5 1004.8 1004.6 0.0
14/08:00pm 29.9 34.5 24.8 74 3.6 WSW 9 15 5 8 1004.3 1004.1 0.0
14/07:30pm 30.2 34.1 24.8 73 3.8 W 13 22 7 12 1003.8 1003.6 0.0
14/07:00pm 30.4 35.0 24.8 72 3.9 W 9 19 5 10 1003.5 1003.3 0.0
14/06:30pm 30.6 34.7 24.5 70 4.3 W 11 19 6 10 1003.4 1003.2 0.0
14/06:00pm 30.8 35.1 24.9 71 4.2 W 11 20 6 11 1003.3 1003.1 0.0
14/05:30pm 31.2 34.9 24.6 68 4.6 W 13 22 7 12 1003.2 1003.0 0.0
14/05:00pm 31.9 35.9 25.0 67 4.9 W 13 20 7 11 1003.1 1002.9 0.0
14/04:30pm 31.8 35.2 24.7 66 5.0 WNW 15 24 8 13 1003.0 1002.8 0.0
14/04:00pm 32.4 35.6 25.0 65 5.2 NW 17 32 9 17 1002.8 1002.6 0.0
14/03:30pm 34.1 37.6 24.9 58 6.5 NW 15 24 8 13 1002.6 1002.4 0.0
14/03:00pm 34.2 38.2 25.0 58 6.5 WNW 13 24 7 13 1002.5 1002.3 0.0
14/02:30pm 34.9 39.7 25.7 59 6.6 NW 11 20 6 11 1003.0 1002.8 0.0
14/02:00pm 34.6 38.3 25.1 57 6.7 NW 15 22 8 12 1003.4 1003.2 0.0
14/01:30pm 34.6 38.5 23.6 52 7.7 WNW 9 15 5 8 1003.8 1003.6 0.0
14/01:00pm 34.2 37.9 23.2 52 7.6 W 9 19 5 10 1003.9 1003.7 0.0
14/12:30pm 33.8 37.5 23.2 54 7.4 W 9 15 5 8 1004.2 1004.0 0.0
14/12:00pm 33.2 36.4 22.3 52 7.5 WNW 9 17 5 9 1004.7 1004.5 0.0
14/11:30am 33.1 36.2 22.2 52 7.5 W 9 17 5 9 1005.3 1005.1 0.0
14/11:00am 32.6 35.4 21.5 52 7.5 W 9 13 5 7 1005.2 1005.0 0.0
14/10:30am 31.4 33.9 21.0 54 7.0 SW 9 20 5 11 1005.7 1005.5 0.0
14/10:00am 30.7 34.4 21.5 58 6.2 SSW 4 9 2 5 1006.1 1005.9 0.0
14/09:30am 29.8 32.5 20.6 57 6.1 SW 7 17 4 9 1006.5 1006.3 0.0
14/09:00am 29.2 31.5 20.6 59 5.7 SSW 9 17 5 9 1006.4 1006.2 0.0
14/08:30am 28.3 31.2 21.1 65 4.8 SSW 7 9 4 5 1006.2 1006.0 0.0
14/08:00am 27.4 30.0 20.5 66 4.5 SSW 7 15 4 8 1006.1 1005.9 0.0
14/07:30am 27.8 30.2 20.9 66 4.6 SSW 9 17 5 9 1005.9 1005.7 0.0
14/07:00am 28.0 30.3 20.6 64 4.9 SSW 9 15 5 8 1005.2 1005.0 0.0
14/06:30am 28.1 33.4 24.3 80 2.6 S 4 7 2 4 1004.9 1004.7 0.0
14/06:00am 28.6 33.1 24.6 79 2.8 SSW 9 15 5 8 1004.8 1004.6 0.0
14/05:30am 29.0 34.1 25.0 79 2.8 SW 7 13 4 7 1003.8 1003.6 0.0
14/05:00am 29.1 34.4 25.3 80 2.7 W 7 13 4 7 1002.8 1002.6 0.0
14/04:30am 29.2 33.9 25.6 81 2.6 WNW 11 19 6 10 1002.8 1002.6 0.0
14/04:00am 29.1 33.7 25.3 80 2.7 W 11 17 6 9 1003.6 1003.4 0.0
14/03:30am 29.1 34.0 25.3 80 2.7 WSW 9 17 5 9 1003.9 1003.7 0.0
14/03:00am 29.0 34.1 25.6 82 2.4 W 9 17 5 9 1003.8 1003.6 0.0
14/02:30am 28.8 33.4 25.4 82 2.4 W 11 17 6 9 1004.0 1003.8 0.0
14/02:00am 28.9 33.8 25.3 81 2.5 WSW 9 13 5 7 1004.8 1004.6 0.0
14/01:30am 28.8 34.2 25.2 81 2.5 WSW 6 9 3 5 1004.8 1004.6 0.0
14/01:00am 28.9 33.7 25.1 80 2.7 W 9 17 5 9 1004.1 1003.9 0.0
14/12:30am 29.0 33.4 25.0 79 2.8 WNW 11 20 6 11 1004.2 1004.0 0.0
14/12:00am 29.1 33.8 24.9 78 2.9 W 9 19 5 10 1004.9 1004.7 0.0
 
Date/Time
CST
Temp
°C
App
Temp
°C
Dew
Point
°C
Rel
Hum
%
Delta-T
°C
Wind Press
QNH
hPa
Press
MSL
hPa
Rain since
9am
mm
Dir  Spd
km/h
Gust
km/h
Spd
kts
Gust
kts
13/11:30pm 29.0 33.7 25.0 79 2.8 W 9 13 5 7 1005.2 1005.0 0.0
13/11:00pm 29.1 33.9 25.1 79 2.8 WSW 9 13 5 7 1005.6 1005.4 0.0
13/10:30pm 29.4 34.7 25.2 78 3.0 WSW 7 13 4 7 1005.9 1005.7 0.0
13/10:00pm 29.6 34.8 25.1 77 3.2 WSW 7 11 4 6 1006.4 1006.2 0.0
13/09:30pm 30.0 35.2 25.1 75 3.5 WSW 7 13 4 7 1005.9 1005.7 0.0
13/09:00pm 30.2 35.5 25.3 75 3.5 WSW 7 11 4 6 1005.8 1005.6 0.0
13/08:30pm 30.5 35.6 24.9 72 3.9 WSW 7 13 4 7 1005.5 1005.3 0.0
13/08:00pm 30.8 35.3 24.0 67 4.7 W 7 13 4 7 1004.5 1004.3 0.0

Other Formats:

Comma delimited format used in spreadsheet applications
http://www.bom.gov.au/fwo/IDD60801/IDD60801.94105.axf

JavaScript Object Notation format (JSON) in row-major order
http://www.bom.gov.au/fwo/IDD60801/IDD60801.94105.json